Time;durP1;ratioP1;P1;durP2;ratioP2;P2;SDS_P1;SDS_P2;PMS_P1;PMS_P2;Temp;Humidity;BMP_temperature;BMP_pressure;BME280_temperature;BME280_humidity;BME280_pressure;Samples;Min_cycle;Max_cycle;Signal;HPM_P1;HPM_P2
2023/08/01 00:00:42;;;;;;;2.50;2.08;;;;;;;15.54;100.00;99924.91;6189249;23;20024;-74
2023/08/01 00:03:09;;;;;;;2.63;2.20;;;;;;;15.52;100.00;99930.03;6189776;23;20450;-75
2023/08/01 00:05:37;;;;;;;5.50;1.77;;;;;;;15.51;100.00;99923.22;6189158;23;20014;-75
2023/08/01 00:08:03;;;;;;;6.95;2.25;;;;;;;15.48;100.00;99928.84;6189662;23;20629;-75
2023/08/01 00:10:30;;;;;;;3.53;2.17;;;;;;;15.43;100.00;99926.88;6188342;23;20435;-75
2023/08/01 00:12:56;;;;;;;4.78;2.03;;;;;;;15.40;100.00;99927.88;6163356;23;20044;-75
2023/08/01 00:15:23;;;;;;;3.50;2.20;;;;;;;15.37;100.00;99920.81;6188912;23;20013;-75
2023/08/01 00:17:49;;;;;;;3.35;2.00;;;;;;;15.35;100.00;99926.66;6163456;23;20040;-74
2023/08/01 00:20:16;;;;;;;2.38;1.98;;;;;;;15.32;100.00;99919.59;6189616;23;20023;-74
2023/08/01 00:22:43;;;;;;;6.53;2.35;;;;;;;15.31;100.00;99910.81;6189062;23;20047;-75
2023/08/01 00:25:09;;;;;;;2.75;2.15;;;;;;;15.32;100.00;99908.88;6189087;23;20414;-75
2023/08/01 00:27:36;;;;;;;3.95;2.33;;;;;;;15.32;100.00;99906.19;6188813;23;20014;-75
2023/08/01 00:30:07;;;;;;;5.40;2.10;;;;;;;15.32;100.00;99903.50;6189311;23;20014;-75
2023/08/01 00:32:35;;;;;;;4.70;2.35;;;;;;;15.33;100.00;99889.63;6189054;23;20018;-75
2023/08/01 00:35:01;;;;;;;5.78;2.50;;;;;;;15.31;100.00;99889.38;6162949;23;20446;-75
2023/08/01 00:37:28;;;;;;;3.28;2.50;;;;;;;15.29;100.00;99888.41;6162113;23;20022;-75
2023/08/01 00:39:55;;;;;;;4.00;2.05;;;;;;;15.27;100.00;99882.78;6162227;23;20474;-75
2023/08/01 00:42:21;;;;;;;9.00;2.50;;;;;;;15.24;100.00;99879.16;6162124;23;20025;-75
2023/08/01 00:44:49;;;;;;;3.88;1.95;;;;;;;15.24;100.00;99867.69;6189754;23;20102;-75
2023/08/01 00:47:15;;;;;;;3.15;2.25;;;;;;;15.20;100.00;99859.91;6162885;23;20041;-75
2023/08/01 00:49:42;;;;;;;3.50;2.40;;;;;;;15.17;100.00;99863.59;6162359;23;20444;-75
2023/08/01 00:52:09;;;;;;;5.18;2.47;;;;;;;15.16;100.00;99861.41;6138422;23;20029;-75
2023/08/01 00:54:36;;;;;;;6.95;2.40;;;;;;;15.10;100.00;99856.06;6188152;23;20081;-75
2023/08/01 00:57:04;;;;;;;4.18;2.30;;;;;;;15.09;100.00;99845.81;6189509;23;20017;-75
2023/08/01 00:59:31;;;;;;;4.57;2.30;;;;;;;15.05;100.00;99843.38;6162229;23;20076;-75
2023/08/01 01:02:01;;;;;;;4.60;2.30;;;;;;;15.04;100.00;99839.25;6162278;23;20029;-75
2023/08/01 01:04:28;;;;;;;4.38;2.67;;;;;;;15.01;100.00;99840.22;6162323;23;20024;-74
2023/08/01 01:07:06;;;;;;;8.77;2.70;;;;;;;14.98;100.00;99836.59;6162924;23;20027;-75
2023/08/01 01:09:32;;;;;;;3.50;2.70;;;;;;;14.94;100.00;99841.47;6188326;23;20080;-75
2023/08/01 01:12:00;;;;;;;4.10;2.55;;;;;;;14.93;100.00;99834.63;6189625;23;20179;-75
2023/08/01 01:14:27;;;;;;;2.67;2.42;;;;;;;14.91;100.00;99842.44;6188707;23;20018;-75
2023/08/01 01:16:54;;;;;;;4.75;2.47;;;;;;;14.87;100.00;99836.59;6189373;23;20024;-75
2023/08/01 01:19:20;;;;;;;3.25;2.95;;;;;;;14.85;100.00;99840.97;6188710;23;20017;-75
2023/08/01 01:21:48;;;;;;;3.30;2.97;;;;;;;14.81;100.00;99837.81;6189379;23;20467;-75
2023/08/01 01:24:15;;;;;;;2.90;2.70;;;;;;;14.78;100.00;99844.19;6188763;23;20022;-75
2023/08/01 01:26:43;;;;;;;8.85;3.22;;;;;;;14.76;100.00;99836.63;6188892;23;20471;-75
2023/08/01 01:29:11;;;;;;;5.20;3.08;;;;;;;14.74;100.00;99847.09;6162527;23;20481;-75
2023/08/01 01:31:38;;;;;;;5.82;3.20;;;;;;;14.72;100.00;99846.88;6188415;23;20018;-74
2023/08/01 01:34:05;;;;;;;4.82;3.42;;;;;;;14.68;100.00;99839.06;6162627;23;20056;-75
2023/08/01 01:36:32;;;;;;;5.05;3.03;;;;;;;14.66;100.00;99846.13;6187985;23;20040;-75
2023/08/01 01:38:58;;;;;;;9.82;3.75;;;;;;;14.63;100.00;99845.16;6162626;23;20017;-74
2023/08/01 01:41:25;;;;;;;4.13;3.72;;;;;;;14.62;100.00;99838.34;6188607;23;20100;-75
2023/08/01 01:43:52;;;;;;;7.75;3.30;;;;;;;14.60;100.00;99842.72;6162439;23;20029;-75
2023/08/01 01:46:18;;;;;;;7.68;3.47;;;;;;;14.59;100.00;99841.28;6188451;23;20444;-74
2023/08/01 01:48:45;;;;;;;6.45;3.50;;;;;;;14.56;100.00;99834.22;6189187;23;20084;-75
2023/08/01 01:51:11;;;;;;;5.72;3.75;;;;;;;14.56;100.00;99839.56;6188556;23;20024;-75
2023/08/01 01:53:38;;;;;;;4.57;3.58;;;;;;;14.55;100.00;99838.09;6161666;23;20503;-75
2023/08/01 01:56:05;;;;;;;6.78;3.15;;;;;;;14.52;100.00;99837.13;6189100;23;20017;-75
2023/08/01 01:58:31;;;;;;;6.18;3.60;;;;;;;14.50;100.00;99834.22;6161451;23;20053;-74
2023/08/01 02:00:58;;;;;;;6.18;3.65;;;;;;;14.47;100.00;99835.19;6162403;23;20025;-75
2023/08/01 02:03:24;;;;;;;4.63;3.70;;;;;;;14.45;100.00;99831.53;6161604;23;20026;-75
2023/08/01 02:05:52;;;;;;;7.40;3.72;;;;;;;14.43;100.00;99840.03;6188374;23;20017;-75
2023/08/01 02:08:18;;;;;;;6.97;3.67;;;;;;;14.42;100.00;99832.50;6161571;23;20014;-75
2023/08/01 02:10:45;;;;;;;5.15;3.63;;;;;;;14.39;100.00;99831.53;6162276;23;20100;-75
2023/08/01 02:13:12;;;;;;;6.47;3.42;;;;;;;14.37;100.00;99833.22;6188818;23;20018;-75
2023/08/01 02:15:38;;;;;;;5.35;3.80;;;;;;;14.35;100.00;99826.41;6188142;23;20037;-75
2023/08/01 02:18:05;;;;;;;4.65;3.38;;;;;;;14.33;100.00;99826.16;6162067;23;20371;-74
2023/08/01 02:20:32;;;;;;;7.53;3.60;;;;;;;14.32;100.00;99827.38;6160843;23;20481;-75
2023/08/01 02:22:58;;;;;;;5.53;3.60;;;;;;;14.31;100.00;99819.84;6161933;23;20033;-75
2023/08/01 02:25:25;;;;;;;6.88;3.60;;;;;;;14.31;100.00;99817.88;6161562;23;20462;-75
2023/08/01 02:27:54;;;;;;;6.78;4.20;;;;;;;14.32;100.00;99814.00;6161978;23;20078;-75
2023/08/01 02:30:20;;;;;;;7.40;4.05;;;;;;;14.34;100.00;99813.50;6187636;23;20104;-74
2023/08/01 02:32:47;;;;;;;11.35;4.22;;;;;;;14.35;100.00;99812.28;6188605;23;20017;-74
2023/08/01 02:35:14;;;;;;;6.88;3.75;;;;;;;14.35;100.00;99821.06;6136667;23;20017;-75
2023/08/01 02:37:40;;;;;;;7.97;3.65;;;;;;;14.38;100.00;99824.72;6161266;23;20109;-74
2023/08/01 02:40:08;;;;;;;10.77;4.05;;;;;;;14.40;100.00;99813.50;6188460;23;20048;-75
2023/08/01 02:42:35;;;;;;;9.75;4.00;;;;;;;14.41;100.00;99822.97;6187833;23;21036;-74
2023/08/01 02:45:01;;;;;;;5.78;3.88;;;;;;;14.43;100.00;99833.97;6188515;23;20017;-74
2023/08/01 02:47:28;;;;;;;9.07;4.20;;;;;;;14.43;100.00;99833.97;6160940;23;20466;-75
2023/08/01 02:49:55;;;;;;;9.68;4.50;;;;;;;14.43;100.00;99832.00;6187952;23;20025;-75
2023/08/01 02:52:21;;;;;;;8.70;4.43;;;;;;;14.43;100.00;99836.63;6161657;23;20009;-74
2023/08/01 02:54:48;;;;;;;8.35;4.20;;;;;;;14.42;100.00;99837.84;6161894;23;20351;-74
2023/08/01 02:57:14;;;;;;;6.82;3.83;;;;;;;14.41;100.00;99837.13;6161857;23;20018;-74
2023/08/01 02:59:41;;;;;;;4.68;3.25;;;;;;;14.42;100.00;99843.22;6161274;23;20025;-74
2023/08/01 03:02:07;;;;;;;5.45;3.60;;;;;;;14.43;100.00;99842.72;6188493;23;20014;-74
2023/08/01 03:04:35;;;;;;;9.38;3.50;;;;;;;14.43;100.00;99833.97;6187204;23;20105;-74
2023/08/01 03:07:13;;;;;;;6.10;3.58;;;;;;;14.42;100.00;99829.81;6188439;23;20092;-74
2023/08/01 03:09:39;;;;;;;6.25;3.17;;;;;;;14.42;100.00;99821.78;6187798;23;20076;-74
2023/08/01 03:12:06;;;;;;;6.93;3.03;;;;;;;14.43;100.00;99832.00;6188513;23;20016;-74
2023/08/01 03:14:33;;;;;;;7.43;3.33;;;;;;;14.44;100.00;99822.75;6161353;23;20044;-74
2023/08/01 03:17:00;;;;;;;5.32;2.88;;;;;;;14.45;100.00;99820.81;6161806;23;20104;-74
2023/08/01 03:19:26;;;;;;;5.47;3.38;;;;;;;14.43;100.00;99823.97;6187079;23;20021;-74
2023/08/01 03:21:53;;;;;;;6.28;2.88;;;;;;;14.43;100.00;99817.91;6188345;23;20017;-74
2023/08/01 03:24:19;;;;;;;2.83;2.42;;;;;;;14.42;100.00;99833.22;6187734;23;20072;-74
2023/08/01 03:26:46;;;;;;;4.35;3.08;;;;;;;14.43;100.00;99833.97;6163600;23;20013;-74
2023/08/01 03:29:14;;;;;;;6.50;2.80;;;;;;;14.42;100.00;99843.94;6189841;23;20018;-75
2023/08/01 03:31:40;;;;;;;7.90;2.85;;;;;;;14.42;100.00;99827.16;6159449;23;20025;-75
2023/08/01 03:34:08;;;;;;;4.28;2.60;;;;;;;14.43;100.00;99820.56;6132831;23;20014;-75
2023/08/01 03:36:35;;;;;;;6.55;3.15;;;;;;;14.41;100.00;99829.09;6159069;23;20037;-75
2023/08/01 03:39:03;;;;;;;4.93;2.63;;;;;;;14.41;100.00;99817.63;6159728;23;20018;-74
2023/08/01 03:41:32;;;;;;;7.60;3.10;;;;;;;14.39;100.00;99826.16;6157572;23;20420;-74
2023/08/01 03:43:59;;;;;;;4.55;2.80;;;;;;;14.38;100.00;99829.34;6159878;23;20022;-74
2023/08/01 03:46:26;;;;;;;8.38;3.35;;;;;;;14.39;100.00;99836.16;6159242;23;20018;-74
2023/08/01 03:48:52;;;;;;;6.45;3.10;;;;;;;14.38;100.00;99837.38;6133186;23;20547;-74
2023/08/01 03:51:20;;;;;;;7.45;3.67;;;;;;;14.38;100.00;99838.09;6157326;23;20105;-74
2023/08/01 03:53:47;;;;;;;5.95;3.33;;;;;;;14.39;100.00;99831.53;6133389;23;20247;-74
2023/08/01 03:56:26;;;;;;;7.28;3.45;;;;;;;14.40;100.00;99822.25;6132677;23;20036;-74
2023/08/01 03:58:53;;;;;;;5.53;3.20;;;;;;;14.41;100.00;99825.66;6159978;23;20503;-74
2023/08/01 04:01:20;;;;;;;10.02;3.92;;;;;;;14.40;100.00;99826.88;6132655;23;20028;-74
2023/08/01 04:03:47;;;;;;;7.65;3.10;;;;;;;14.41;100.00;99825.66;6159683;23;20028;-74
2023/08/01 04:06:15;;;;;;;7.53;3.60;;;;;;;14.40;100.00;99832.97;6159567;23;20069;-74
2023/08/01 04:08:41;;;;;;;7.25;3.70;;;;;;;14.41;100.00;99836.38;6158911;23;20049;-74
2023/08/01 04:11:08;;;;;;;9.90;3.53;;;;;;;14.41;100.00;99831.78;6159678;23;20014;-74
2023/08/01 04:13:34;;;;;;;6.47;3.30;;;;;;;14.41;100.00;99834.44;6159066;23;20093;-74
2023/08/01 04:16:01;;;;;;;8.07;3.28;;;;;;;14.41;100.00;99837.13;6133058;23;20052;-74
2023/08/01 04:18:28;;;;;;;8.85;3.80;;;;;;;14.43;100.00;99834.69;6158899;23;20018;-74
2023/08/01 04:20:54;;;;;;;4.93;3.20;;;;;;;14.43;100.00;99831.28;6159566;23;20049;-74
2023/08/01 04:23:21;;;;;;;6.97;3.97;;;;;;;14.42;100.00;99827.88;6132810;23;20018;-74
2023/08/01 04:25:47;;;;;;;6.88;3.85;;;;;;;14.41;100.00;99822.97;6159554;23;20015;-74
2023/08/01 04:28:14;;;;;;;6.65;3.75;;;;;;;14.41;100.00;99823.75;6159636;23;20041;-74
2023/08/01 04:30:40;;;;;;;7.63;3.60;;;;;;;14.41;100.00;99822.97;6175812;23;20017;-74
2023/08/01 04:33:07;;;;;;;9.82;4.18;;;;;;;14.41;100.00;99825.66;6189455;23;20009;-74
2023/08/01 04:35:34;;;;;;;7.38;3.70;;;;;;;14.41;100.00;99814.94;6188490;23;20021;-74
2023/08/01 04:38:00;;;;;;;6.35;3.83;;;;;;;14.40;100.00;99822.25;6188771;23;20029;-74
2023/08/01 04:40:27;;;;;;;7.65;3.97;;;;;;;14.41;100.00;99815.69;6161776;23;20080;-74
2023/08/01 04:42:53;;;;;;;8.40;4.65;;;;;;;14.42;100.00;99813.75;6189471;23;20018;-74
2023/08/01 04:45:20;;;;;;;9.30;4.32;;;;;;;14.43;100.00;99820.56;6188151;23;20018;-75
2023/08/01 04:47:46;;;;;;;8.90;4.05;;;;;;;14.45;100.00;99815.47;6162652;23;20476;-74
2023/08/01 04:50:13;;;;;;;7.57;4.03;;;;;;;14.47;100.00;99819.13;6189270;23;20018;-74
2023/08/01 04:52:39;;;;;;;6.22;3.95;;;;;;;14.52;100.00;99823.00;6162380;23;20065;-74
2023/08/01 04:55:07;;;;;;;7.18;4.07;;;;;;;14.58;100.00;99810.34;6189302;23;20436;-74
2023/08/01 04:57:33;;;;;;;11.40;4.53;;;;;;;14.60;100.00;99808.63;6188698;23;20024;-74
2023/08/01 05:00:00;;;;;;;9.15;4.60;;;;;;;14.64;100.00;99816.44;6188985;23;20528;-73
2023/08/01 05:02:26;;;;;;;12.20;3.75;;;;;;;14.73;100.00;99820.81;6188636;23;20026;-73
2023/08/01 05:04:53;;;;;;;10.23;4.82;;;;;;;15.10;100.00;99818.53;6189322;23;20097;-74
2023/08/01 05:07:19;;;;;;;15.45;4.30;;;;;;;15.63;100.00;99814.66;6188540;23;20053;-74
2023/08/01 05:09:46;;;;;;;12.25;4.72;;;;;;;16.00;100.00;99819.53;6189240;23;20020;-74
2023/08/01 05:12:12;;;;;;;8.93;4.32;;;;;;;16.42;100.00;99830.22;6189251;23;20017;-74
2023/08/01 05:14:39;;;;;;;17.23;4.80;;;;;;;17.04;100.00;99830.41;6188027;23;20017;-74
2023/08/01 05:17:06;;;;;;;14.02;4.82;;;;;;;16.60;100.00;99824.22;6189380;23;20092;-74
2023/08/01 05:19:32;;;;;;;7.57;4.35;;;;;;;16.19;100.00;99827.72;6161881;23;20073;-76
2023/08/01 05:21:59;;;;;;;10.05;3.85;;;;;;;15.96;100.00;99832.53;6163137;23;20014;-75
2023/08/01 05:24:26;;;;;;;5.70;4.07;;;;;;;15.83;100.00;99829.69;6188334;23;20096;-75
2023/08/01 05:26:52;;;;;;;10.98;4.70;;;;;;;15.76;100.00;99832.88;6189131;23;20049;-75
2023/08/01 05:29:19;;;;;;;14.73;4.35;;;;;;;15.68;100.00;99837.31;6161247;23;20414;-75
2023/08/01 05:31:45;;;;;;;13.75;4.82;;;;;;;15.61;100.00;99838.56;6162313;23;20052;-75
2023/08/01 05:34:12;;;;;;;10.15;4.80;;;;;;;15.56;100.00;99828.63;6189191;23;20470;-74
2023/08/01 05:36:38;;;;;;;11.88;4.57;;;;;;;15.56;100.00;99833.22;6161735;23;20057;-75
2023/08/01 05:39:05;;;;;;;14.52;4.30;;;;;;;15.52;100.00;99833.47;6189055;23;20102;-75
2023/08/01 05:41:32;;;;;;;9.73;4.38;;;;;;;15.51;100.00;99845.44;6188500;23;20443;-76
2023/08/01 05:43:59;;;;;;;12.73;4.50;;;;;;;15.53;100.00;99844.94;6188447;23;20017;-75
2023/08/01 05:46:25;;;;;;;11.98;4.05;;;;;;;15.58;100.00;99844.22;6188437;23;20018;-75
2023/08/01 05:48:52;;;;;;;13.07;4.88;;;;;;;15.73;100.00;99846.56;6188926;23;20014;-75
2023/08/01 05:51:18;;;;;;;9.77;4.30;;;;;;;16.38;100.00;99852.00;6188274;23;20363;-75
2023/08/01 05:53:45;;;;;;;13.98;4.10;;;;;;;16.30;100.00;99838.38;6162655;23;20017;-75
2023/08/01 05:56:12;;;;;;;10.73;4.47;;;;;;;16.10;100.00;99846.81;6188976;23;20455;-75
2023/08/01 05:58:38;;;;;;;12.82;4.32;;;;;;;16.00;100.00;99845.66;6187685;23;20017;-76
2023/08/01 06:01:05;;;;;;;7.65;4.57;;;;;;;15.98;100.00;99856.91;6189148;23;20020;-75
2023/08/01 06:03:32;;;;;;;7.95;3.67;;;;;;;16.00;100.00;99846.38;6188180;23;20013;-76
2023/08/01 06:05:58;;;;;;;10.35;4.00;;;;;;;16.14;100.00;99841.91;6189025;23;20022;-76
2023/08/01 06:08:25;;;;;;;7.35;3.70;;;;;;;16.25;100.00;99852.59;6161847;23;20092;-76
2023/08/01 06:10:52;;;;;;;9.93;4.13;;;;;;;16.51;100.00;99857.50;6189134;23;20497;-75
2023/08/01 06:13:19;;;;;;;12.55;4.00;;;;;;;17.15;100.00;99851.81;6187533;23;20017;-75
2023/08/01 06:15:46;;;;;;;8.65;3.67;;;;;;;17.62;100.00;99866.38;6189176;23;20045;-75
2023/08/01 06:18:12;;;;;;;9.25;3.70;;;;;;;17.78;100.00;99872.09;6188998;23;20037;-75
2023/08/01 06:20:39;;;;;;;12.93;3.53;;;;;;;17.99;100.00;99870.34;6188111;23;20089;-75
2023/08/01 06:23:06;;;;;;;11.48;3.25;;;;;;;17.91;100.00;99878.28;6188849;23;20052;-76
2023/08/01 06:25:32;;;;;;;7.10;3.13;;;;;;;17.73;100.00;99875.56;6188027;23;20021;-76
2023/08/01 06:27:59;;;;;;;10.48;3.33;;;;;;;17.73;100.00;99881.69;6188259;23;20018;-75
2023/08/01 06:30:26;;;;;;;6.20;2.70;;;;;;;17.90;100.00;99886.88;6187632;23;20010;-76
2023/08/01 06:32:52;;;;;;;5.57;2.95;;;;;;;17.72;100.00;99882.19;6188545;23;20013;-76
2023/08/01 06:35:19;;;;;;;7.13;3.30;;;;;;;17.66;100.00;99883.00;6188100;23;20076;-76
2023/08/01 06:37:45;;;;;;;7.30;3.15;;;;;;;17.67;100.00;99884.44;6188691;23;20014;-76
2023/08/01 06:40:12;;;;;;;8.30;3.30;;;;;;;17.71;100.00;99888.81;6162046;23;20057;-76
2023/08/01 06:42:40;;;;;;;5.43;2.95;;;;;;;17.70;100.00;99888.09;6161127;23;20013;-76
2023/08/01 06:45:07;;;;;;;6.47;3.33;;;;;;;17.76;99.64;99891.44;6188808;23;20025;-76
2023/08/01 06:47:34;;;;;;;7.93;2.90;;;;;;;17.83;100.00;99887.44;6161815;23;20082;-75
2023/08/01 06:50:00;;;;;;;6.68;3.38;;;;;;;17.83;99.17;99896.25;6188176;23;20100;-76
2023/08/01 06:52:27;;;;;;;10.65;3.25;;;;;;;17.85;98.71;99891.09;6187720;23;20018;-76
2023/08/01 06:54:53;;;;;;;7.85;3.00;;;;;;;17.86;99.17;99883.72;6188490;23;20049;-77
2023/08/01 06:57:20;;;;;;;7.75;3.20;;;;;;;17.97;99.28;99887.00;6187064;23;20048;-75
2023/08/01 06:59:46;;;;;;;8.27;3.15;;;;;;;18.06;98.58;99896.66;6188684;23;20102;-75
2023/08/01 07:02:13;;;;;;;9.02;2.90;;;;;;;18.06;97.32;99902.03;6163253;23;20057;-75
2023/08/01 07:04:40;;;;;;;9.85;3.22;;;;;;;18.20;97.11;99890.09;6188840;23;20456;-76
2023/08/01 07:07:08;;;;;;;6.20;2.65;;;;;;;18.24;96.35;99881.72;6189777;23;20411;-75
2023/08/01 07:09:35;;;;;;;5.50;2.78;;;;;;;18.18;96.42;99897.22;6188931;23;20440;-75
2023/08/01 07:12:01;;;;;;;6.45;2.88;;;;;;;18.26;97.24;99892.72;6189264;23;20430;-75
2023/08/01 07:14:28;;;;;;;5.03;2.83;;;;;;;18.02;96.34;99890.13;6188951;23;20077;-75
2023/08/01 07:16:55;;;;;;;9.73;3.10;;;;;;;18.18;95.65;99881.06;6189816;23;20587;-75
2023/08/01 07:19:22;;;;;;;6.32;2.55;;;;;;;18.35;95.25;99886.94;6188718;23;20017;-75
2023/08/01 07:21:49;;;;;;;4.97;2.60;;;;;;;18.45;94.94;99887.28;6189848;23;20013;-75
2023/08/01 07:24:16;;;;;;;8.43;2.92;;;;;;;18.60;95.99;99893.66;6162884;23;20025;-75
2023/08/01 07:26:42;;;;;;;11.32;3.38;;;;;;;18.68;95.01;99888.41;6188879;23;20014;-74
2023/08/01 07:29:10;;;;;;;4.05;2.38;;;;;;;18.63;92.84;99889.22;6189638;23;20514;-75
2023/08/01 07:31:37;;;;;;;5.65;2.30;;;;;;;18.22;90.31;99895.69;6157172;23;20698;-75
2023/08/01 07:34:04;;;;;;;8.27;2.72;;;;;;;17.87;93.00;99895.97;6160047;23;20022;-74
2023/08/01 07:36:30;;;;;;;6.05;2.50;;;;;;;17.69;92.61;99900.09;6159225;23;20014;-75
2023/08/01 07:38:57;;;;;;;7.07;2.63;;;;;;;17.57;94.60;99904.13;6159199;23;20014;-75
2023/08/01 07:41:23;;;;;;;6.93;2.65;;;;;;;17.64;96.91;99901.59;6158920;23;20021;-75
2023/08/01 07:43:50;;;;;;;6.57;2.72;;;;;;;17.71;95.83;99908.38;6159572;23;20064;-75
2023/08/01 07:46:17;;;;;;;8.57;2.70;;;;;;;17.71;96.89;99908.38;6157947;23;20021;-77
2023/08/01 07:48:44;;;;;;;8.15;2.63;;;;;;;17.61;95.73;99901.88;6159556;23;20022;-74
2023/08/01 07:51:11;;;;;;;6.15;2.20;;;;;;;17.55;95.97;99910.03;6159506;23;20090;-75
2023/08/01 07:53:38;;;;;;;7.15;2.60;;;;;;;17.44;94.81;99904.03;6158175;23;20018;-75
2023/08/01 07:56:07;;;;;;;6.57;2.25;;;;;;;17.22;95.00;99908.41;6159590;23;20021;-75
2023/08/01 07:58:33;;;;;;;8.63;2.60;;;;;;;17.14;96.73;99907.53;6158784;23;20384;-75
2023/08/01 08:01:04;;;;;;;5.07;2.60;;;;;;;17.03;97.72;99904.97;6159466;23;20438;-75
2023/08/01 08:03:31;;;;;;;5.25;2.60;;;;;;;17.11;98.21;99910.50;6158604;23;20475;-75
2023/08/01 08:05:58;;;;;;;7.15;2.63;;;;;;;17.46;98.04;99906.97;6159297;23;20022;-75
2023/08/01 08:08:25;;;;;;;8.38;2.75;;;;;;;17.89;100.00;99906.94;6158287;23;20519;-75
2023/08/01 08:10:51;;;;;;;6.00;2.58;;;;;;;18.33;96.63;99916.38;6159502;23;20639;-76
2023/08/01 08:13:18;;;;;;;9.35;2.70;;;;;;;18.63;95.18;99916.91;6159169;23;20018;-75
2023/08/01 08:15:45;;;;;;;9.18;2.70;;;;;;;18.98;93.73;99921.22;6157672;23;20521;-75
2023/08/01 08:18:11;;;;;;;5.47;2.42;;;;;;;18.97;92.27;99917.06;6159520;23;20061;-75
2023/08/01 08:20:44;;;;;;;6.05;2.50;;;;;;;18.88;91.52;99914.03;6158887;23;20467;-75
2023/08/01 08:23:14;;;;;;;5.25;2.65;;;;;;;18.68;90.59;99911.94;6159119;23;20022;-75
2023/08/01 08:25:44;;;;;;;6.75;2.53;;;;;;;18.59;91.52;99921.84;6158802;23;20022;-76
2023/08/01 08:28:12;;;;;;;5.43;2.35;;;;;;;18.51;91.31;99922.94;6159614;23;20018;-76
2023/08/01 08:30:39;;;;;;;5.28;2.58;;;;;;;18.62;91.10;99917.41;6175352;23;20017;-76
2023/08/01 08:33:06;;;;;;;6.30;2.33;;;;;;;19.02;91.34;99920.19;6189295;23;20056;-76
2023/08/01 08:35:34;;;;;;;6.90;2.50;;;;;;;19.09;88.94;99930.34;6162667;23;20018;-75
2023/08/01 08:38:06;;;;;;;4.40;1.90;;;;;;;19.05;88.71;99921.84;6162544;23;20013;-75
2023/08/01 08:40:33;;;;;;;4.18;2.28;;;;;;;19.30;89.07;99929.22;6188863;23;20024;-75
2023/08/01 08:43:03;;;;;;;3.22;2.00;;;;;;;19.67;86.21;99934.91;6189520;23;20025;-75
2023/08/01 08:45:34;;;;;;;4.55;2.10;;;;;;;19.70;81.57;99928.47;6188372;23;20013;-75
2023/08/01 08:48:07;;;;;;;5.10;2.00;;;;;;;19.80;77.54;99927.53;6189541;23;20024;-75
2023/08/01 08:50:35;;;;;;;5.22;2.20;;;;;;;20.08;79.75;99926.22;6188872;23;20459;-76
2023/08/01 08:53:02;;;;;;;5.70;2.08;;;;;;;20.29;77.39;99925.00;6162101;23;20514;-75
2023/08/01 08:55:31;;;;;;;6.03;2.50;;;;;;;20.14;76.80;99927.53;6188731;23;20013;-75
2023/08/01 08:57:59;;;;;;;4.97;2.15;;;;;;;19.89;77.79;99923.69;6189378;23;20448;-75
2023/08/01 09:00:27;;;;;;;3.90;1.95;;;;;;;19.74;78.01;99932.31;6188468;23;20531;-77
2023/08/01 09:02:54;;;;;;;3.30;2.00;;;;;;;19.55;78.92;99932.47;6189413;23;20407;-76
2023/08/01 09:05:26;;;;;;;8.30;2.22;;;;;;;19.85;77.38;99932.09;6188615;23;20021;-75
2023/08/01 09:07:56;;;;;;;4.63;2.25;;;;;;;19.98;75.00;99931.34;6188887;23;20479;-79
2023/08/01 09:10:23;;;;;;;6.72;2.03;;;;;;;19.98;74.31;99934.78;6188888;23;20014;-78
2023/08/01 09:12:50;;;;;;;6.43;2.05;;;;;;;19.80;75.49;99937.59;6189221;23;20436;-78
2023/08/01 09:15:17;;;;;;;6.47;2.17;;;;;;;19.44;77.37;99940.75;6189393;23;20019;-77
2023/08/01 09:17:51;;;;;;;4.97;2.20;;;;;;;19.08;79.41;99951.22;6189350;23;20041;-76
2023/08/01 09:20:17;;;;;;;4.85;2.22;;;;;;;19.11;79.71;99957.53;6189221;23;20014;-77
2023/08/01 09:22:45;;;;;;;6.95;2.30;;;;;;;18.97;80.03;99957.50;6188126;23;20089;-76
2023/08/01 09:25:12;;;;;;;7.50;2.60;;;;;;;18.83;80.20;99950.63;6189123;23;20100;-76
2023/08/01 09:27:39;;;;;;;7.13;2.10;;;;;;;19.11;80.98;99971.03;6188193;23;20105;-75
2023/08/01 09:30:11;;;;;;;5.68;2.30;;;;;;;19.14;80.36;99964.59;6188429;23;20092;-76
2023/08/01 09:32:38;;;;;;;4.15;2.17;;;;;;;18.96;80.24;99958.03;6188340;23;20022;-75
2023/08/01 09:35:05;;;;;;;4.60;2.33;;;;;;;19.30;81.77;99966.25;6188837;23;20021;-74
2023/08/01 09:37:40;;;;;;;4.82;1.92;;;;;;;19.61;80.01;99965.44;6161729;23;20041;-75
2023/08/01 09:40:08;;;;;;;4.28;2.10;;;;;;;19.63;80.54;99976.47;6189132;23;20069;-75
2023/08/01 09:42:42;;;;;;;9.02;2.20;;;;;;;19.51;81.51;99988.00;6188536;23;20021;-77
2023/08/01 09:45:12;;;;;;;3.17;2.20;;;;;;;19.12;81.17;99991.38;6189243;23;20430;-75
2023/08/01 09:47:39;;;;;;;2.22;1.85;;;;;;;18.64;83.34;99993.84;6188597;23;20097;-76
2023/08/01 09:50:06;;;;;;;3.72;1.92;;;;;;;18.48;85.00;99994.03;6188455;23;20017;-75
2023/08/01 09:52:33;;;;;;;5.55;2.33;;;;;;;18.45;86.22;99990.38;6188071;23;20022;-75
2023/08/01 09:54:59;;;;;;;6.28;2.35;;;;;;;18.73;88.53;99990.03;6188722;23;20024;-75
2023/08/01 09:57:29;;;;;;;4.75;2.00;;;;;;;18.89;87.10;99985.59;6188174;23;20018;-76
2023/08/01 09:59:56;;;;;;;3.25;2.00;;;;;;;18.88;85.38;99982.19;6188793;23;20018;-75
2023/08/01 10:02:25;;;;;;;4.75;2.47;;;;;;;19.21;86.00;99986.28;6187881;23;20424;-76
2023/08/01 10:04:53;;;;;;;5.10;2.17;;;;;;;19.44;84.28;99996.69;6161917;23;20052;-76
2023/08/01 10:07:30;;;;;;;5.47;2.45;;;;;;;19.59;85.22;99992.25;6187766;23;20081;-74
2023/08/01 10:09:58;;;;;;;5.93;2.40;;;;;;;19.88;84.87;99990.47;6188531;23;20077;-74
2023/08/01 10:12:29;;;;;;;5.45;1.90;;;;;;;20.11;83.40;99985.31;6188222;23;20017;-75
2023/08/01 10:14:57;;;;;;;9.13;2.25;;;;;;;20.44;80.95;99991.28;6188798;23;20013;-74
2023/08/01 10:17:25;;;;;;;5.00;2.40;;;;;;;20.25;78.67;99992.16;6187800;23;20068;-73
2023/08/01 10:19:55;;;;;;;3.70;2.00;;;;;;;20.14;78.33;100008.59;6161445;23;20412;-73
2023/08/01 10:22:24;;;;;;;6.72;2.72;;;;;;;19.76;76.22;100020.91;6188143;23;20025;-76
2023/08/01 10:24:52;;;;;;;5.13;1.90;;;;;;;19.30;75.50;100009.44;6162393;23;20021;-74
2023/08/01 10:27:20;;;;;;;5.95;1.80;;;;;;;19.01;78.63;100005.03;6188131;23;20397;-74
2023/08/01 10:29:58;;;;;;;4.00;2.17;;;;;;;19.37;78.93;100010.78;6157000;23;20419;-75
2023/08/01 10:32:31;;;;;;;4.93;2.08;;;;;;;19.85;77.60;100012.38;6158040;23;20134;-74
2023/08/01 10:34:57;;;;;;;3.47;2.20;;;;;;;20.27;76.91;100021.34;6158830;23;20464;-74
2023/08/01 10:37:24;;;;;;;2.83;1.90;;;;;;;20.48;74.05;100011.31;6159319;23;20018;-74
2023/08/01 10:40:00;;;;;;;5.40;1.80;;;;;;;20.80;75.06;100008.38;6160058;23;20018;-74
2023/08/01 10:42:41;;;;;;;3.45;1.73;;;;;;;20.35;73.24;100024.16;6157888;23;20431;-75
2023/08/01 10:45:19;;;;;;;;;;;;;;;19.94;75.94;100022.78;6160520;23;20018;-74
2023/08/01 10:47:45;;;;;;;10.13;2.03;;;;;;;19.78;74.01;100023.81;6159483;23;20003;-73
2023/08/01 10:50:16;;;;;;;6.30;2.08;;;;;;;20.09;73.64;100019.50;6159831;23;20014;-74
2023/08/01 10:52:43;;;;;;;5.88;1.73;;;;;;;20.57;75.01;100020.97;6157952;23;20022;-74
2023/08/01 10:55:10;;;;;;;4.85;1.77;;;;;;;20.72;70.16;100023.81;6160299;23;20073;-74
2023/08/01 10:57:46;;;;;;;6.20;1.67;;;;;;;20.95;69.48;100013.19;6158110;23;20856;-73
2023/08/01 11:00:16;;;;;;;8.98;2.05;;;;;;;21.33;68.24;100018.19;6160132;23;20049;-74
2023/08/01 11:02:50;;;;;;;5.38;1.92;;;;;;;20.80;67.72;100023.88;6159350;23;20449;-74
2023/08/01 11:05:18;;;;;;;2.35;1.40;;;;;;;20.51;68.21;100025.78;6160398;23;20022;-74
2023/08/01 11:07:56;;;;;;;4.20;1.75;;;;;;;20.33;70.60;100032.78;6160131;23;20097;-74
2023/08/01 11:10:26;;;;;;;3.00;1.48;;;;;;;20.45;66.99;100039.41;6159224;23;20021;-74
2023/08/01 11:12:55;;;;;;;1.63;1.25;;;;;;;20.62;66.84;100042.47;6159891;23;20104;-74
2023/08/01 11:15:22;;;;;;;6.32;1.52;;;;;;;20.57;67.43;100029.09;6159197;23;20128;-74
2023/08/01 11:17:54;;;;;;;3.22;1.50;;;;;;;20.54;67.25;100033.56;6159552;23;20462;-74
2023/08/01 11:20:22;;;;;;;3.90;1.75;;;;;;;20.38;65.86;100036.63;6159488;23;20025;-74
2023/08/01 11:23:07;;;;;;;6.18;1.77;;;;;;;20.06;67.37;100044.88;6159744;23;20105;-75
2023/08/01 11:25:37;;;;;;;3.90;1.70;;;;;;;19.96;68.53;100050.00;6157399;23;20024;-75
2023/08/01 11:28:17;;;;;;;8.18;2.00;;;;;;;20.62;69.07;100044.47;6159653;23;20468;-74